sensor_id;sensor_type;location;lat;lon;timestamp;P1;P2;P0
62631;PMS5003;48703;51.248;-0.546;2023-06-26T00:00:11;2.74;2.36;
62631;PMS5003;48703;51.248;-0.546;2023-06-26T00:03:11;1.84;1.84;
62631;PMS5003;48703;51.248;-0.546;2023-06-26T00:06:13;1.66;1.57;
62631;PMS5003;48703;51.248;-0.546;2023-06-26T00:09:14;2.90;2.43;
62631;PMS5003;48703;51.248;-0.546;2023-06-26T00:12:16;3.03;3.03;
62631;PMS5003;48703;51.248;-0.546;2023-06-26T00:15:17;2.61;2.24;
62631;PMS5003;48703;51.248;-0.546;2023-06-26T00:18:19;3.00;2.83;
62631;PMS5003;48703;51.248;-0.546;2023-06-26T00:21:20;4.06;3.66;
62631;PMS5003;48703;51.248;-0.546;2023-06-26T00:24:21;3.36;2.63;
62631;PMS5003;48703;51.248;-0.546;2023-06-26T00:27:23;3.93;3.09;
62631;PMS5003;48703;51.248;-0.546;2023-06-26T00:30:25;2.33;2.11;
62631;PMS5003;48703;51.248;-0.546;2023-06-26T00:33:26;4.24;3.09;
62631;PMS5003;48703;51.248;-0.546;2023-06-26T00:36:28;2.20;2.20;
62631;PMS5003;48703;51.248;-0.546;2023-06-26T00:39:29;2.71;2.69;
62631;PMS5003;48703;51.248;-0.546;2023-06-26T00:42:30;3.24;2.30;
62631;PMS5003;48703;51.248;-0.546;2023-06-26T00:45:32;3.69;3.06;
62631;PMS5003;48703;51.248;-0.546;2023-06-26T00:48:33;3.27;2.47;
62631;PMS5003;48703;51.248;-0.546;2023-06-26T00:51:35;2.40;2.27;
62631;PMS5003;48703;51.248;-0.546;2023-06-26T00:54:36;4.21;3.27;
62631;PMS5003;48703;51.248;-0.546;2023-06-26T00:57:38;3.01;2.99;
62631;PMS5003;48703;51.248;-0.546;2023-06-26T01:00:39;2.43;2.43;
62631;PMS5003;48703;51.248;-0.546;2023-06-26T01:03:41;3.59;2.60;
62631;PMS5003;48703;51.248;-0.546;2023-06-26T01:06:43;2.83;2.57;
62631;PMS5003;48703;51.248;-0.546;2023-06-26T01:09:44;1.91;1.77;
62631;PMS5003;48703;51.248;-0.546;2023-06-26T01:12:45;3.29;3.21;
62631;PMS5003;48703;51.248;-0.546;2023-06-26T01:15:47;3.44;3.14;
62631;PMS5003;48703;51.248;-0.546;2023-06-26T01:18:48;2.74;2.39;
62631;PMS5003;48703;51.248;-0.546;2023-06-26T01:21:50;3.33;3.33;
62631;PMS5003;48703;51.248;-0.546;2023-06-26T01:24:54;3.69;3.51;
62631;PMS5003;48703;51.248;-0.546;2023-06-26T01:27:53;3.01;3.01;
62631;PMS5003;48703;51.248;-0.546;2023-06-26T01:30:54;3.50;2.73;
62631;PMS5003;48703;51.248;-0.546;2023-06-26T01:33:56;3.61;2.76;
62631;PMS5003;48703;51.248;-0.546;2023-06-26T01:36:57;5.96;4.36;
62631;PMS5003;48703;51.248;-0.546;2023-06-26T01:39:59;4.03;3.33;
62631;PMS5003;48703;51.248;-0.546;2023-06-26T01:43:00;3.70;3.09;
62631;PMS5003;48703;51.248;-0.546;2023-06-26T01:46:03;3.51;3.10;
62631;PMS5003;48703;51.248;-0.546;2023-06-26T01:49:06;2.86;2.86;
62631;PMS5003;48703;51.248;-0.546;2023-06-26T01:52:07;3.67;2.44;
62631;PMS5003;48703;51.248;-0.546;2023-06-26T01:55:08;3.29;3.29;
62631;PMS5003;48703;51.248;-0.546;2023-06-26T01:58:07;2.87;2.70;
62631;PMS5003;48703;51.248;-0.546;2023-06-26T02:01:08;3.23;3.06;
62631;PMS5003;48703;51.248;-0.546;2023-06-26T02:04:10;5.11;4.14;
62631;PMS5003;48703;51.248;-0.546;2023-06-26T02:07:11;4.24;4.24;
62631;PMS5003;48703;51.248;-0.546;2023-06-26T02:10:13;2.77;2.77;
62631;PMS5003;48703;51.248;-0.546;2023-06-26T02:13:14;4.67;3.54;
62631;PMS5003;48703;51.248;-0.546;2023-06-26T02:16:16;3.54;3.54;
62631;PMS5003;48703;51.248;-0.546;2023-06-26T02:19:17;4.21;3.74;
62631;PMS5003;48703;51.248;-0.546;2023-06-26T02:22:19;4.83;4.53;
62631;PMS5003;48703;51.248;-0.546;2023-06-26T02:25:20;3.76;2.89;
62631;PMS5003;48703;51.248;-0.546;2023-06-26T02:28:22;5.09;3.64;
62631;PMS5003;48703;51.248;-0.546;2023-06-26T02:31:23;2.91;2.91;
62631;PMS5003;48703;51.248;-0.546;2023-06-26T02:34:24;4.77;3.91;
62631;PMS5003;48703;51.248;-0.546;2023-06-26T02:37:26;3.86;3.86;
62631;PMS5003;48703;51.248;-0.546;2023-06-26T02:40:28;2.86;2.60;
62631;PMS5003;48703;51.248;-0.546;2023-06-26T02:43:29;4.37;4.07;
62631;PMS5003;48703;51.248;-0.546;2023-06-26T02:46:31;4.47;3.60;
62631;PMS5003;48703;51.248;-0.546;2023-06-26T02:49:32;4.86;3.88;
62631;PMS5003;48703;51.248;-0.546;2023-06-26T02:52:33;3.44;3.24;
62631;PMS5003;48703;51.248;-0.546;2023-06-26T02:55:35;5.44;5.07;
62631;PMS5003;48703;51.248;-0.546;2023-06-26T02:58:36;3.80;3.44;
62631;PMS5003;48703;51.248;-0.546;2023-06-26T03:01:38;4.14;3.83;
62631;PMS5003;48703;51.248;-0.546;2023-06-26T03:04:39;3.10;2.90;
62631;PMS5003;48703;51.248;-0.546;2023-06-26T03:07:41;4.99;4.19;
62631;PMS5003;48703;51.248;-0.546;2023-06-26T03:10:42;4.57;3.29;
62631;PMS5003;48703;51.248;-0.546;2023-06-26T03:13:44;4.47;4.23;
62631;PMS5003;48703;51.248;-0.546;2023-06-26T03:16:45;4.69;3.06;
62631;PMS5003;48703;51.248;-0.546;2023-06-26T03:19:47;3.59;3.06;
62631;PMS5003;48703;51.248;-0.546;2023-06-26T03:22:49;3.23;2.84;
62631;PMS5003;48703;51.248;-0.546;2023-06-26T03:25:50;5.33;3.26;
62631;PMS5003;48703;51.248;-0.546;2023-06-26T03:28:52;3.99;3.27;
62631;PMS5003;48703;51.248;-0.546;2023-06-26T03:31:53;4.10;3.67;
62631;PMS5003;48703;51.248;-0.546;2023-06-26T03:34:55;4.46;3.70;
62631;PMS5003;48703;51.248;-0.546;2023-06-26T03:37:56;3.00;3.00;
62631;PMS5003;48703;51.248;-0.546;2023-06-26T03:40:58;3.89;2.91;
62631;PMS5003;48703;51.248;-0.546;2023-06-26T03:43:59;5.68;5.19;
62631;PMS5003;48703;51.248;-0.546;2023-06-26T03:47:00;5.20;4.34;
62631;PMS5003;48703;51.248;-0.546;2023-06-26T03:50:02;4.33;3.60;
62631;PMS5003;48703;51.248;-0.546;2023-06-26T03:53:03;5.07;3.27;
62631;PMS5003;48703;51.248;-0.546;2023-06-26T03:56:05;3.70;3.47;
62631;PMS5003;48703;51.248;-0.546;2023-06-26T03:59:06;3.87;3.19;
62631;PMS5003;48703;51.248;-0.546;2023-06-26T04:02:08;3.51;3.11;
62631;PMS5003;48703;51.248;-0.546;2023-06-26T04:05:10;2.94;2.94;
62631;PMS5003;48703;51.248;-0.546;2023-06-26T04:08:11;3.97;3.50;
62631;PMS5003;48703;51.248;-0.546;2023-06-26T04:11:13;4.67;3.24;
62631;PMS5003;48703;51.248;-0.546;2023-06-26T04:14:14;3.79;3.30;
62631;PMS5003;48703;51.248;-0.546;2023-06-26T04:17:16;3.10;2.66;
62631;PMS5003;48703;51.248;-0.546;2023-06-26T04:20:17;4.51;3.66;
62631;PMS5003;48703;51.248;-0.546;2023-06-26T04:23:19;3.40;2.34;
62631;PMS5003;48703;51.248;-0.546;2023-06-26T04:26:20;4.37;3.80;
62631;PMS5003;48703;51.248;-0.546;2023-06-26T04:29:22;4.24;3.41;
62631;PMS5003;48703;51.248;-0.546;2023-06-26T04:32:23;4.47;3.19;
62631;PMS5003;48703;51.248;-0.546;2023-06-26T04:35:25;4.03;3.56;
62631;PMS5003;48703;51.248;-0.546;2023-06-26T04:38:26;3.80;3.59;
62631;PMS5003;48703;51.248;-0.546;2023-06-26T04:41:28;3.54;3.37;
62631;PMS5003;48703;51.248;-0.546;2023-06-26T04:44:29;3.46;2.81;
62631;PMS5003;48703;51.248;-0.546;2023-06-26T04:47:31;3.99;3.39;
62631;PMS5003;48703;51.248;-0.546;2023-06-26T04:50:33;4.41;3.54;
62631;PMS5003;48703;51.248;-0.546;2023-06-26T04:53:34;2.73;2.73;
62631;PMS5003;48703;51.248;-0.546;2023-06-26T04:56:35;4.24;3.99;
62631;PMS5003;48703;51.248;-0.546;2023-06-26T04:59:37;4.30;3.30;
62631;PMS5003;48703;51.248;-0.546;2023-06-26T05:02:38;4.69;3.64;
62631;PMS5003;48703;51.248;-0.546;2023-06-26T05:05:40;3.81;2.83;
62631;PMS5003;48703;51.248;-0.546;2023-06-26T05:08:41;4.26;3.23;
62631;PMS5003;48703;51.248;-0.546;2023-06-26T05:11:43;3.10;3.10;
62631;PMS5003;48703;51.248;-0.546;2023-06-26T05:14:45;3.54;3.33;
62631;PMS5003;48703;51.248;-0.546;2023-06-26T05:17:46;3.84;3.40;
62631;PMS5003;48703;51.248;-0.546;2023-06-26T05:20:48;3.16;3.16;
62631;PMS5003;48703;51.248;-0.546;2023-06-26T05:23:49;5.04;3.16;
62631;PMS5003;48703;51.248;-0.546;2023-06-26T05:26:51;3.83;3.31;
62631;PMS5003;48703;51.248;-0.546;2023-06-26T05:29:52;4.13;3.03;
62631;PMS5003;48703;51.248;-0.546;2023-06-26T05:32:54;3.27;2.80;
62631;PMS5003;48703;51.248;-0.546;2023-06-26T05:35:55;2.99;2.99;
62631;PMS5003;48703;51.248;-0.546;2023-06-26T05:38:57;4.27;3.76;
62631;PMS5003;48703;51.248;-0.546;2023-06-26T05:41:58;2.81;2.73;
62631;PMS5003;48703;51.248;-0.546;2023-06-26T05:44:59;4.94;4.57;
62631;PMS5003;48703;51.248;-0.546;2023-06-26T05:48:00;4.37;3.87;
62631;PMS5003;48703;51.248;-0.546;2023-06-26T05:51:02;3.89;3.89;
62631;PMS5003;48703;51.248;-0.546;2023-06-26T05:54:04;2.94;2.51;
62631;PMS5003;48703;51.248;-0.546;2023-06-26T05:57:05;4.30;3.23;
62631;PMS5003;48703;51.248;-0.546;2023-06-26T06:00:07;4.27;3.59;
62631;PMS5003;48703;51.248;-0.546;2023-06-26T06:03:09;4.34;3.56;
62631;PMS5003;48703;51.248;-0.546;2023-06-26T06:06:10;4.69;4.16;
62631;PMS5003;48703;51.248;-0.546;2023-06-26T06:09:11;4.86;3.79;
62631;PMS5003;48703;51.248;-0.546;2023-06-26T06:12:13;4.26;4.26;
62631;PMS5003;48703;51.248;-0.546;2023-06-26T06:15:14;4.99;3.61;
62631;PMS5003;48703;51.248;-0.546;2023-06-26T06:18:16;5.20;4.39;
62631;PMS5003;48703;51.248;-0.546;2023-06-26T06:21:17;4.93;3.36;
62631;PMS5003;48703;51.248;-0.546;2023-06-26T06:24:19;4.47;4.36;
62631;PMS5003;48703;51.248;-0.546;2023-06-26T06:27:20;5.31;4.59;
62631;PMS5003;48703;51.248;-0.546;2023-06-26T06:30:22;4.66;4.66;
62631;PMS5003;48703;51.248;-0.546;2023-06-26T06:33:23;5.89;4.51;
62631;PMS5003;48703;51.248;-0.546;2023-06-26T06:36:25;3.97;3.41;
62631;PMS5003;48703;51.248;-0.546;2023-06-26T06:39:26;3.30;3.30;
62631;PMS5003;48703;51.248;-0.546;2023-06-26T06:42:28;4.14;3.93;
62631;PMS5003;48703;51.248;-0.546;2023-06-26T06:45:29;4.23;3.71;
62631;PMS5003;48703;51.248;-0.546;2023-06-26T06:48:31;4.91;4.07;
62631;PMS5003;48703;51.248;-0.546;2023-06-26T06:51:32;4.70;4.19;
62631;PMS5003;48703;51.248;-0.546;2023-06-26T06:54:46;4.20;3.51;
62631;PMS5003;48703;51.248;-0.546;2023-06-26T06:57:36;3.94;3.21;
62631;PMS5003;48703;51.248;-0.546;2023-06-26T07:00:37;4.61;3.66;
62631;PMS5003;48703;51.248;-0.546;2023-06-26T07:03:39;5.19;3.63;
62631;PMS5003;48703;51.248;-0.546;2023-06-26T07:06:40;3.64;3.04;
62631;PMS5003;48703;51.248;-0.546;2023-06-26T07:09:41;4.57;3.87;
62631;PMS5003;48703;51.248;-0.546;2023-06-26T07:12:43;3.94;2.99;
62631;PMS5003;48703;51.248;-0.546;2023-06-26T07:15:45;3.74;3.63;
62631;PMS5003;48703;51.248;-0.546;2023-06-26T07:18:46;4.07;4.07;
62631;PMS5003;48703;51.248;-0.546;2023-06-26T07:21:47;3.11;2.74;
62631;PMS5003;48703;51.248;-0.546;2023-06-26T07:24:49;2.40;2.16;
62631;PMS5003;48703;51.248;-0.546;2023-06-26T07:27:50;4.97;4.30;
62631;PMS5003;48703;51.248;-0.546;2023-06-26T07:30:52;2.26;1.94;
62631;PMS5003;48703;51.248;-0.546;2023-06-26T07:33:53;2.40;2.40;
62631;PMS5003;48703;51.248;-0.546;2023-06-26T07:36:55;3.67;2.83;
62631;PMS5003;48703;51.248;-0.546;2023-06-26T07:39:56;4.01;3.77;
62631;PMS5003;48703;51.248;-0.546;2023-06-26T07:42:58;3.51;3.40;
62631;PMS5003;48703;51.248;-0.546;2023-06-26T07:45:59;3.19;2.77;
62631;PMS5003;48703;51.248;-0.546;2023-06-26T07:49:01;3.76;3.47;
62631;PMS5003;48703;51.248;-0.546;2023-06-26T07:52:03;3.60;3.07;
62631;PMS5003;48703;51.248;-0.546;2023-06-26T07:55:04;1.89;1.89;
62631;PMS5003;48703;51.248;-0.546;2023-06-26T07:58:06;4.33;3.14;
62631;PMS5003;48703;51.248;-0.546;2023-06-26T08:01:07;3.31;2.63;
62631;PMS5003;48703;51.248;-0.546;2023-06-26T08:04:08;3.34;3.34;
62631;PMS5003;48703;51.248;-0.546;2023-06-26T08:07:10;3.53;3.19;
62631;PMS5003;48703;51.248;-0.546;2023-06-26T08:10:11;4.44;3.81;
62631;PMS5003;48703;51.248;-0.546;2023-06-26T08:13:13;3.24;2.90;
62631;PMS5003;48703;51.248;-0.546;2023-06-26T08:16:15;3.89;3.20;
62631;PMS5003;48703;51.248;-0.546;2023-06-26T08:19:16;2.61;2.20;
62631;PMS5003;48703;51.248;-0.546;2023-06-26T08:22:17;3.27;2.54;
62631;PMS5003;48703;51.248;-0.546;2023-06-26T08:25:19;3.23;2.71;
62631;PMS5003;48703;51.248;-0.546;2023-06-26T08:28:20;3.51;3.21;
62631;PMS5003;48703;51.248;-0.546;2023-06-26T08:31:22;4.10;2.56;
62631;PMS5003;48703;51.248;-0.546;2023-06-26T08:34:24;3.87;3.03;
62631;PMS5003;48703;51.248;-0.546;2023-06-26T08:37:25;3.31;2.79;
62631;PMS5003;48703;51.248;-0.546;2023-06-26T08:40:26;2.51;2.51;
62631;PMS5003;48703;51.248;-0.546;2023-06-26T08:43:27;5.64;4.66;
62631;PMS5003;48703;51.248;-0.546;2023-06-26T08:46:29;5.23;4.41;
62631;PMS5003;48703;51.248;-0.546;2023-06-26T08:49:34;4.80;3.86;
62631;PMS5003;48703;51.248;-0.546;2023-06-26T08:52:33;3.54;2.96;
62631;PMS5003;48703;51.248;-0.546;2023-06-26T08:55:33;3.79;2.60;
62631;PMS5003;48703;51.248;-0.546;2023-06-26T08:58:35;2.79;2.79;
62631;PMS5003;48703;51.248;-0.546;2023-06-26T09:01:36;2.41;2.07;
62631;PMS5003;48703;51.248;-0.546;2023-06-26T09:04:37;2.37;2.37;
62631;PMS5003;48703;51.248;-0.546;2023-06-26T09:07:39;2.89;2.89;
62631;PMS5003;48703;51.248;-0.546;2023-06-26T09:10:40;2.23;2.23;
62631;PMS5003;48703;51.248;-0.546;2023-06-26T09:13:42;2.06;2.06;
62631;PMS5003;48703;51.248;-0.546;2023-06-26T09:16:45;3.14;2.29;
62631;PMS5003;48703;51.248;-0.546;2023-06-26T09:19:45;3.34;2.60;
62631;PMS5003;48703;51.248;-0.546;2023-06-26T09:22:47;2.36;2.36;
62631;PMS5003;48703;51.248;-0.546;2023-06-26T09:25:48;2.43;2.33;
62631;PMS5003;48703;51.248;-0.546;2023-06-26T09:28:49;1.70;1.56;
62631;PMS5003;48703;51.248;-0.546;2023-06-26T09:31:51;2.67;1.84;
62631;PMS5003;48703;51.248;-0.546;2023-06-26T09:34:52;1.49;1.34;
62631;PMS5003;48703;51.248;-0.546;2023-06-26T09:37:53;3.27;2.31;
62631;PMS5003;48703;51.248;-0.546;2023-06-26T09:40:55;2.57;1.89;
62631;PMS5003;48703;51.248;-0.546;2023-06-26T09:43:57;2.91;2.23;
62631;PMS5003;48703;51.248;-0.546;2023-06-26T09:46:58;1.90;1.90;
62631;PMS5003;48703;51.248;-0.546;2023-06-26T09:49:59;2.13;2.11;
62631;PMS5003;48703;51.248;-0.546;2023-06-26T09:53:07;2.63;1.76;
62631;PMS5003;48703;51.248;-0.546;2023-06-26T09:56:04;1.40;1.40;
62631;PMS5003;48703;51.248;-0.546;2023-06-26T09:59:04;2.01;2.01;
62631;PMS5003;48703;51.248;-0.546;2023-06-26T10:02:05;4.04;2.50;
62631;PMS5003;48703;51.248;-0.546;2023-06-26T10:05:07;2.39;2.39;
62631;PMS5003;48703;51.248;-0.546;2023-06-26T10:08:08;3.16;2.11;
62631;PMS5003;48703;51.248;-0.546;2023-06-26T10:11:11;2.33;2.33;
62631;PMS5003;48703;51.248;-0.546;2023-06-26T10:14:11;1.70;1.70;
62631;PMS5003;48703;51.248;-0.546;2023-06-26T10:17:14;2.80;2.80;
62631;PMS5003;48703;51.248;-0.546;2023-06-26T10:20:14;1.99;1.99;
62631;PMS5003;48703;51.248;-0.546;2023-06-26T10:23:15;2.89;2.37;
62631;PMS5003;48703;51.248;-0.546;2023-06-26T10:26:16;1.77;1.60;
62631;PMS5003;48703;51.248;-0.546;2023-06-26T10:29:18;2.34;1.86;
62631;PMS5003;48703;51.248;-0.546;2023-06-26T10:32:19;3.19;2.61;
62631;PMS5003;48703;51.248;-0.546;2023-06-26T10:35:21;3.43;2.29;
62631;PMS5003;48703;51.248;-0.546;2023-06-26T10:38:22;2.64;2.37;
62631;PMS5003;48703;51.248;-0.546;2023-06-26T10:41:24;2.21;2.21;
62631;PMS5003;48703;51.248;-0.546;2023-06-26T10:44:25;1.84;1.70;
62631;PMS5003;48703;51.248;-0.546;2023-06-26T10:47:28;2.19;2.19;
62631;PMS5003;48703;51.248;-0.546;2023-06-26T10:50:28;3.04;1.91;
62631;PMS5003;48703;51.248;-0.546;2023-06-26T10:53:29;1.96;1.96;
62631;PMS5003;48703;51.248;-0.546;2023-06-26T10:56:47;2.43;1.83;
62631;PMS5003;48703;51.248;-0.546;2023-06-26T10:59:32;2.89;2.33;
62631;PMS5003;48703;51.248;-0.546;2023-06-26T11:02:47;2.34;1.83;
62631;PMS5003;48703;51.248;-0.546;2023-06-26T11:05:35;1.86;1.86;
62631;PMS5003;48703;51.248;-0.546;2023-06-26T11:08:43;2.13;1.46;
62631;PMS5003;48703;51.248;-0.546;2023-06-26T11:12:10;3.10;1.99;
62631;PMS5003;48703;51.248;-0.546;2023-06-26T11:14:39;2.84;2.46;
62631;PMS5003;48703;51.248;-0.546;2023-06-26T11:17:41;2.01;2.01;
62631;PMS5003;48703;51.248;-0.546;2023-06-26T11:20:42;2.33;2.33;
62631;PMS5003;48703;51.248;-0.546;2023-06-26T11:23:43;1.89;1.89;
62631;PMS5003;48703;51.248;-0.546;2023-06-26T11:26:45;3.03;2.17;
62631;PMS5003;48703;51.248;-0.546;2023-06-26T11:29:47;2.27;2.01;
62631;PMS5003;48703;51.248;-0.546;2023-06-26T11:32:47;2.86;1.87;
62631;PMS5003;48703;51.248;-0.546;2023-06-26T11:35:49;2.54;2.31;
62631;PMS5003;48703;51.248;-0.546;2023-06-26T11:38:52;2.11;2.03;
62631;PMS5003;48703;51.248;-0.546;2023-06-26T11:41:52;3.19;2.30;
62631;PMS5003;48703;51.248;-0.546;2023-06-26T11:44:53;1.43;1.43;
62631;PMS5003;48703;51.248;-0.546;2023-06-26T11:47:55;1.16;1.16;
62631;PMS5003;48703;51.248;-0.546;2023-06-26T11:50:56;2.09;1.23;
62631;PMS5003;48703;51.248;-0.546;2023-06-26T11:54:00;1.43;1.34;
62631;PMS5003;48703;51.248;-0.546;2023-06-26T11:56:59;2.17;2.17;
62631;PMS5003;48703;51.248;-0.546;2023-06-26T12:00:10;2.97;2.59;
62631;PMS5003;48703;51.248;-0.546;2023-06-26T12:03:02;2.46;1.99;
62631;PMS5003;48703;51.248;-0.546;2023-06-26T12:06:03;2.46;2.37;
62631;PMS5003;48703;51.248;-0.546;2023-06-26T12:09:05;2.60;2.24;
62631;PMS5003;48703;51.248;-0.546;2023-06-26T12:12:06;2.90;2.90;
62631;PMS5003;48703;51.248;-0.546;2023-06-26T12:15:07;4.14;4.00;
62631;PMS5003;48703;51.248;-0.546;2023-06-26T12:18:09;3.71;3.09;
62631;PMS5003;48703;51.248;-0.546;2023-06-26T12:21:27;2.84;2.23;
62631;PMS5003;48703;51.248;-0.546;2023-06-26T12:24:13;3.59;3.33;
62631;PMS5003;48703;51.248;-0.546;2023-06-26T12:27:14;3.96;3.87;
62631;PMS5003;48703;51.248;-0.546;2023-06-26T12:30:14;3.30;3.30;
62631;PMS5003;48703;51.248;-0.546;2023-06-26T12:33:16;4.64;4.64;
62631;PMS5003;48703;51.248;-0.546;2023-06-26T12:36:17;4.54;4.24;
62631;PMS5003;48703;51.248;-0.546;2023-06-26T12:39:20;3.63;2.93;
62631;PMS5003;48703;51.248;-0.546;2023-06-26T12:42:21;3.74;3.74;
62631;PMS5003;48703;51.248;-0.546;2023-06-26T12:45:21;4.23;3.49;
62631;PMS5003;48703;51.248;-0.546;2023-06-26T12:48:35;3.64;3.60;
62631;PMS5003;48703;51.248;-0.546;2023-06-26T12:51:24;3.59;2.26;
62631;PMS5003;48703;51.248;-0.546;2023-06-26T12:54:26;3.04;2.96;
62631;PMS5003;48703;51.248;-0.546;2023-06-26T12:57:27;2.66;2.66;
62631;PMS5003;48703;51.248;-0.546;2023-06-26T13:00:28;4.11;2.87;
62631;PMS5003;48703;51.248;-0.546;2023-06-26T13:03:30;2.20;1.66;
62631;PMS5003;48703;51.248;-0.546;2023-06-26T13:06:31;3.56;2.66;
62631;PMS5003;48703;51.248;-0.546;2023-06-26T13:09:33;2.06;2.06;
62631;PMS5003;48703;51.248;-0.546;2023-06-26T13:12:34;1.31;1.31;
62631;PMS5003;48703;51.248;-0.546;2023-06-26T13:15:35;2.07;1.99;
62631;PMS5003;48703;51.248;-0.546;2023-06-26T13:18:37;2.57;2.57;
62631;PMS5003;48703;51.248;-0.546;2023-06-26T13:21:38;1.93;1.51;
62631;PMS5003;48703;51.248;-0.546;2023-06-26T13:24:40;2.33;1.64;
62631;PMS5003;48703;51.248;-0.546;2023-06-26T13:27:41;2.01;2.01;
62631;PMS5003;48703;51.248;-0.546;2023-06-26T13:30:42;1.11;1.11;
62631;PMS5003;48703;51.248;-0.546;2023-06-26T13:33:44;1.67;1.67;
62631;PMS5003;48703;51.248;-0.546;2023-06-26T13:36:45;2.63;2.20;
62631;PMS5003;48703;51.248;-0.546;2023-06-26T13:39:46;1.36;1.10;
62631;PMS5003;48703;51.248;-0.546;2023-06-26T13:42:48;1.97;1.97;
62631;PMS5003;48703;51.248;-0.546;2023-06-26T13:45:49;1.50;0.86;
62631;PMS5003;48703;51.248;-0.546;2023-06-26T13:48:50;2.59;1.60;
62631;PMS5003;48703;51.248;-0.546;2023-06-26T13:51:52;1.21;1.13;
62631;PMS5003;48703;51.248;-0.546;2023-06-26T13:54:53;2.27;1.84;
62631;PMS5003;48703;51.248;-0.546;2023-06-26T13:57:55;1.46;1.46;
62631;PMS5003;48703;51.248;-0.546;2023-06-26T14:00:56;1.79;1.30;
62631;PMS5003;48703;51.248;-0.546;2023-06-26T14:03:57;1.40;1.40;
62631;PMS5003;48703;51.248;-0.546;2023-06-26T14:06:59;1.80;1.39;
62631;PMS5003;48703;51.248;-0.546;2023-06-26T14:10:00;1.01;1.01;
62631;PMS5003;48703;51.248;-0.546;2023-06-26T14:13:02;1.97;0.90;
62631;PMS5003;48703;51.248;-0.546;2023-06-26T14:16:03;2.26;0.94;
62631;PMS5003;48703;51.248;-0.546;2023-06-26T14:19:04;0.86;0.56;
62631;PMS5003;48703;51.248;-0.546;2023-06-26T14:22:06;1.00;0.90;
62631;PMS5003;48703;51.248;-0.546;2023-06-26T14:25:07;0.76;0.76;
62631;PMS5003;48703;51.248;-0.546;2023-06-26T14:28:08;0.76;0.63;
62631;PMS5003;48703;51.248;-0.546;2023-06-26T14:31:10;1.53;1.53;
62631;PMS5003;48703;51.248;-0.546;2023-06-26T14:34:11;1.39;1.39;
62631;PMS5003;48703;51.248;-0.546;2023-06-26T14:37:12;2.10;1.74;
62631;PMS5003;48703;51.248;-0.546;2023-06-26T14:40:14;1.49;1.49;
62631;PMS5003;48703;51.248;-0.546;2023-06-26T14:43:15;2.40;1.49;
62631;PMS5003;48703;51.248;-0.546;2023-06-26T14:46:17;0.89;0.89;
62631;PMS5003;48703;51.248;-0.546;2023-06-26T14:49:18;1.37;1.37;
62631;PMS5003;48703;51.248;-0.546;2023-06-26T14:52:19;1.29;1.10;
62631;PMS5003;48703;51.248;-0.546;2023-06-26T14:55:21;1.14;1.14;
62631;PMS5003;48703;51.248;-0.546;2023-06-26T14:58:22;2.11;2.11;
62631;PMS5003;48703;51.248;-0.546;2023-06-26T15:01:24;1.01;1.01;
62631;PMS5003;48703;51.248;-0.546;2023-06-26T15:04:25;2.41;1.24;
62631;PMS5003;48703;51.248;-0.546;2023-06-26T15:07:26;0.96;0.81;
62631;PMS5003;48703;51.248;-0.546;2023-06-26T15:10:28;1.40;1.27;
62631;PMS5003;48703;51.248;-0.546;2023-06-26T15:13:29;0.84;0.84;
62631;PMS5003;48703;51.248;-0.546;2023-06-26T15:16:30;0.84;0.84;
62631;PMS5003;48703;51.248;-0.546;2023-06-26T15:19:32;1.31;0.87;
62631;PMS5003;48703;51.248;-0.546;2023-06-26T15:22:33;1.54;0.99;
62631;PMS5003;48703;51.248;-0.546;2023-06-26T15:25:34;1.26;1.19;
62631;PMS5003;48703;51.248;-0.546;2023-06-26T15:28:36;0.64;0.64;
62631;PMS5003;48703;51.248;-0.546;2023-06-26T15:31:37;1.66;0.93;
62631;PMS5003;48703;51.248;-0.546;2023-06-26T15:34:38;2.19;2.19;
62631;PMS5003;48703;51.248;-0.546;2023-06-26T15:37:40;0.71;0.36;
62631;PMS5003;48703;51.248;-0.546;2023-06-26T15:40:41;2.07;1.23;
62631;PMS5003;48703;51.248;-0.546;2023-06-26T15:43:42;1.79;1.33;
62631;PMS5003;48703;51.248;-0.546;2023-06-26T15:46:44;1.59;0.77;
62631;PMS5003;48703;51.248;-0.546;2023-06-26T15:49:45;1.53;0.67;
62631;PMS5003;48703;51.248;-0.546;2023-06-26T15:52:47;0.66;0.66;
62631;PMS5003;48703;51.248;-0.546;2023-06-26T15:55:48;2.06;1.10;
62631;PMS5003;48703;51.248;-0.546;2023-06-26T15:58:49;1.94;1.09;
62631;PMS5003;48703;51.248;-0.546;2023-06-26T16:01:51;1.47;1.47;
62631;PMS5003;48703;51.248;-0.546;2023-06-26T16:04:52;1.76;0.70;
62631;PMS5003;48703;51.248;-0.546;2023-06-26T16:07:53;0.70;0.40;
62631;PMS5003;48703;51.248;-0.546;2023-06-26T16:10:55;1.70;1.27;
62631;PMS5003;48703;51.248;-0.546;2023-06-26T16:13:56;1.03;1.03;
62631;PMS5003;48703;51.248;-0.546;2023-06-26T16:16:57;0.67;0.60;
62631;PMS5003;48703;51.248;-0.546;2023-06-26T16:19:59;1.91;0.99;
62631;PMS5003;48703;51.248;-0.546;2023-06-26T16:23:00;0.59;0.59;
62631;PMS5003;48703;51.248;-0.546;2023-06-26T16:26:02;1.94;1.80;
62631;PMS5003;48703;51.248;-0.546;2023-06-26T16:29:03;1.57;1.57;
62631;PMS5003;48703;51.248;-0.546;2023-06-26T16:32:06;1.39;1.14;
62631;PMS5003;48703;51.248;-0.546;2023-06-26T16:35:06;1.50;0.73;
62631;PMS5003;48703;51.248;-0.546;2023-06-26T16:38:07;1.71;0.99;
62631;PMS5003;48703;51.248;-0.546;2023-06-26T16:41:08;1.63;0.64;
62631;PMS5003;48703;51.248;-0.546;2023-06-26T16:44:10;1.91;0.71;
62631;PMS5003;48703;51.248;-0.546;2023-06-26T16:47:11;1.03;1.03;
62631;PMS5003;48703;51.248;-0.546;2023-06-26T16:50:12;1.49;0.73;
62631;PMS5003;48703;51.248;-0.546;2023-06-26T16:53:14;1.10;0.94;
62631;PMS5003;48703;51.248;-0.546;2023-06-26T16:56:15;1.60;1.11;
62631;PMS5003;48703;51.248;-0.546;2023-06-26T16:59:16;1.44;0.89;
62631;PMS5003;48703;51.248;-0.546;2023-06-26T17:02:17;1.70;0.56;
62631;PMS5003;48703;51.248;-0.546;2023-06-26T17:05:18;0.70;0.69;
62631;PMS5003;48703;51.248;-0.546;2023-06-26T17:08:20;0.59;0.59;
62631;PMS5003;48703;51.248;-0.546;2023-06-26T17:11:21;0.86;0.49;
62631;PMS5003;48703;51.248;-0.546;2023-06-26T17:14:22;1.33;0.56;
62631;PMS5003;48703;51.248;-0.546;2023-06-26T17:17:24;1.19;1.19;
62631;PMS5003;48703;51.248;-0.546;2023-06-26T17:20:25;1.26;1.16;
62631;PMS5003;48703;51.248;-0.546;2023-06-26T17:23:27;1.63;1.11;
62631;PMS5003;48703;51.248;-0.546;2023-06-26T17:26:28;0.49;0.49;
62631;PMS5003;48703;51.248;-0.546;2023-06-26T17:29:29;0.47;0.47;
62631;PMS5003;48703;51.248;-0.546;2023-06-26T17:32:31;0.59;0.59;
62631;PMS5003;48703;51.248;-0.546;2023-06-26T17:35:32;1.20;0.53;
62631;PMS5003;48703;51.248;-0.546;2023-06-26T17:38:34;0.77;0.77;
62631;PMS5003;48703;51.248;-0.546;2023-06-26T17:41:35;1.61;1.31;
62631;PMS5003;48703;51.248;-0.546;2023-06-26T17:44:36;0.83;0.27;
62631;PMS5003;48703;51.248;-0.546;2023-06-26T17:47:39;0.79;0.77;
62631;PMS5003;48703;51.248;-0.546;2023-06-26T17:50:39;1.37;1.07;
62631;PMS5003;48703;51.248;-0.546;2023-06-26T17:53:40;1.89;1.07;
62631;PMS5003;48703;51.248;-0.546;2023-06-26T17:56:42;0.50;0.50;
62631;PMS5003;48703;51.248;-0.546;2023-06-26T17:59:43;0.84;0.46;
62631;PMS5003;48703;51.248;-0.546;2023-06-26T18:02:44;0.94;0.61;
62631;PMS5003;48703;51.248;-0.546;2023-06-26T18:05:46;0.44;0.44;
62631;PMS5003;48703;51.248;-0.546;2023-06-26T18:08:47;0.57;0.57;
62631;PMS5003;48703;51.248;-0.546;2023-06-26T18:11:48;1.50;1.07;
62631;PMS5003;48703;51.248;-0.546;2023-06-26T18:14:50;1.06;0.80;
62631;PMS5003;48703;51.248;-0.546;2023-06-26T18:17:51;1.50;0.77;
62631;PMS5003;48703;51.248;-0.546;2023-06-26T18:20:53;2.07;1.24;
62631;PMS5003;48703;51.248;-0.546;2023-06-26T18:23:54;1.26;1.26;
62631;PMS5003;48703;51.248;-0.546;2023-06-26T18:26:55;0.80;0.80;
62631;PMS5003;48703;51.248;-0.546;2023-06-26T18:29:57;0.96;0.90;